sensor_id;sensor_type;location;lat;lon;timestamp;temperature;humidity
4677;DHT22;2352;48.180;11.478;2024-03-06T00:02:50;8.20;75.30
4677;DHT22;2352;48.180;11.478;2024-03-06T00:07:53;8.20;75.20
4677;DHT22;2352;48.180;11.478;2024-03-06T00:12:57;8.20;75.60
4677;DHT22;2352;48.180;11.478;2024-03-06T00:18:00;8.20;75.30
4677;DHT22;2352;48.180;11.478;2024-03-06T00:23:06;8.20;75.20
4677;DHT22;2352;48.180;11.478;2024-03-06T00:28:10;8.20;75.70
4677;DHT22;2352;48.180;11.478;2024-03-06T00:33:13;8.10;75.90
4677;DHT22;2352;48.180;11.478;2024-03-06T00:38:16;8.10;75.90
4677;DHT22;2352;48.180;11.478;2024-03-06T00:43:20;8.10;75.80
4677;DHT22;2352;48.180;11.478;2024-03-06T00:48:23;8.20;75.40
4677;DHT22;2352;48.180;11.478;2024-03-06T00:53:26;8.10;75.70
4677;DHT22;2352;48.180;11.478;2024-03-06T00:58:30;8.00;75.90
4677;DHT22;2352;48.180;11.478;2024-03-06T01:03:33;8.00;75.70
4677;DHT22;2352;48.180;11.478;2024-03-06T01:08:36;8.10;75.90
4677;DHT22;2352;48.180;11.478;2024-03-06T01:13:41;8.10;75.60
4677;DHT22;2352;48.180;11.478;2024-03-06T01:18:44;8.00;75.80
4677;DHT22;2352;48.180;11.478;2024-03-06T01:23:47;7.90;76.30
4677;DHT22;2352;48.180;11.478;2024-03-06T01:28:51;7.90;76.30
4677;DHT22;2352;48.180;11.478;2024-03-06T01:33:54;7.90;76.00
4677;DHT22;2352;48.180;11.478;2024-03-06T01:38:57;7.90;76.40
4677;DHT22;2352;48.180;11.478;2024-03-06T01:44:01;7.90;76.50
4677;DHT22;2352;48.180;11.478;2024-03-06T01:49:05;8.00;76.20
4677;DHT22;2352;48.180;11.478;2024-03-06T01:54:08;8.10;76.00
4677;DHT22;2352;48.180;11.478;2024-03-06T01:59:13;8.00;76.10
4677;DHT22;2352;48.180;11.478;2024-03-06T02:04:32;8.10;76.10
4677;DHT22;2352;48.180;11.478;2024-03-06T02:09:35;8.10;76.00
4677;DHT22;2352;48.180;11.478;2024-03-06T02:14:39;8.10;76.10
4677;DHT22;2352;48.180;11.478;2024-03-06T02:19:43;8.20;75.60
4677;DHT22;2352;48.180;11.478;2024-03-06T02:24:48;8.10;76.10
4677;DHT22;2352;48.180;11.478;2024-03-06T02:29:51;7.90;76.40
4677;DHT22;2352;48.180;11.478;2024-03-06T02:34:54;8.10;76.50
4677;DHT22;2352;48.180;11.478;2024-03-06T02:39:58;8.20;76.00
4677;DHT22;2352;48.180;11.478;2024-03-06T02:45:01;8.20;76.10
4677;DHT22;2352;48.180;11.478;2024-03-06T02:50:05;8.20;75.90
4677;DHT22;2352;48.180;11.478;2024-03-06T02:55:11;8.10;76.20
4677;DHT22;2352;48.180;11.478;2024-03-06T03:00:15;8.20;76.20
4677;DHT22;2352;48.180;11.478;2024-03-06T03:05:18;8.10;76.40
4677;DHT22;2352;48.180;11.478;2024-03-06T03:10:22;8.10;76.40
4677;DHT22;2352;48.180;11.478;2024-03-06T03:15:26;8.00;76.80
4677;DHT22;2352;48.180;11.478;2024-03-06T03:20:29;8.10;76.90
4677;DHT22;2352;48.180;11.478;2024-03-06T03:25:33;8.10;76.40
4677;DHT22;2352;48.180;11.478;2024-03-06T03:30:36;8.00;76.70
4677;DHT22;2352;48.180;11.478;2024-03-06T03:35:39;8.10;77.00
4677;DHT22;2352;48.180;11.478;2024-03-06T03:40:44;8.20;76.70
4677;DHT22;2352;48.180;11.478;2024-03-06T03:45:46;8.10;76.60
4677;DHT22;2352;48.180;11.478;2024-03-06T03:50:50;8.20;76.40
4677;DHT22;2352;48.180;11.478;2024-03-06T03:55:54;8.10;76.60
4677;DHT22;2352;48.180;11.478;2024-03-06T04:00:57;8.20;76.70
4677;DHT22;2352;48.180;11.478;2024-03-06T04:06:00;8.10;76.70
4677;DHT22;2352;48.180;11.478;2024-03-06T04:11:05;8.20;76.70
4677;DHT22;2352;48.180;11.478;2024-03-06T04:16:08;8.20;76.40
4677;DHT22;2352;48.180;11.478;2024-03-06T04:21:11;8.20;76.70
4677;DHT22;2352;48.180;11.478;2024-03-06T04:26:17;8.10;76.70
4677;DHT22;2352;48.180;11.478;2024-03-06T04:31:20;8.20;77.00
4677;DHT22;2352;48.180;11.478;2024-03-06T04:36:23;8.20;76.70
4677;DHT22;2352;48.180;11.478;2024-03-06T04:41:27;8.10;76.60
4677;DHT22;2352;48.180;11.478;2024-03-06T04:46:30;8.20;77.00
4677;DHT22;2352;48.180;11.478;2024-03-06T04:51:33;8.20;76.60
4677;DHT22;2352;48.180;11.478;2024-03-06T04:56:38;8.20;76.80
4677;DHT22;2352;48.180;11.478;2024-03-06T05:01:41;8.30;76.70
4677;DHT22;2352;48.180;11.478;2024-03-06T05:06:45;8.10;76.90
4677;DHT22;2352;48.180;11.478;2024-03-06T05:12:08;8.30;76.80
4677;DHT22;2352;48.180;11.478;2024-03-06T05:17:28;8.30;76.60
4677;DHT22;2352;48.180;11.478;2024-03-06T05:22:49;8.30;76.70
4677;DHT22;2352;48.180;11.478;2024-03-06T05:28:11;8.20;76.50
4677;DHT22;2352;48.180;11.478;2024-03-06T05:33:31;8.20;76.50
4677;DHT22;2352;48.180;11.478;2024-03-06T05:38:52;8.20;76.50
4677;DHT22;2352;48.180;11.478;2024-03-06T05:44:13;8.30;76.70
4677;DHT22;2352;48.180;11.478;2024-03-06T05:49:34;8.30;76.80
4677;DHT22;2352;48.180;11.478;2024-03-06T05:54:54;8.20;76.80
4677;DHT22;2352;48.180;11.478;2024-03-06T06:00:17;8.20;76.50
4677;DHT22;2352;48.180;11.478;2024-03-06T06:05:23;8.20;76.70
4677;DHT22;2352;48.180;11.478;2024-03-06T06:10:26;8.30;76.60
4677;DHT22;2352;48.180;11.478;2024-03-06T06:15:31;8.20;76.60
4677;DHT22;2352;48.180;11.478;2024-03-06T06:20:34;8.20;76.70
4677;DHT22;2352;48.180;11.478;2024-03-06T06:25:37;8.30;76.40
4677;DHT22;2352;48.180;11.478;2024-03-06T06:30:41;8.20;75.90
4677;DHT22;2352;48.180;11.478;2024-03-06T06:35:44;8.20;75.60
4677;DHT22;2352;48.180;11.478;2024-03-06T06:40:47;8.10;75.50
4677;DHT22;2352;48.180;11.478;2024-03-06T06:45:51;8.00;75.80
4677;DHT22;2352;48.180;11.478;2024-03-06T06:50:55;8.00;75.80
4677;DHT22;2352;48.180;11.478;2024-03-06T06:55:58;8.30;76.20
4677;DHT22;2352;48.180;11.478;2024-03-06T07:01:03;8.10;76.30
4677;DHT22;2352;48.180;11.478;2024-03-06T07:06:06;8.10;75.20
4677;DHT22;2352;48.180;11.478;2024-03-06T07:11:09;7.90;75.60
4677;DHT22;2352;48.180;11.478;2024-03-06T07:16:15;7.90;75.90
4677;DHT22;2352;48.180;11.478;2024-03-06T07:21:18;7.90;75.90
4677;DHT22;2352;48.180;11.478;2024-03-06T07:26:20;8.00;75.30
4677;DHT22;2352;48.180;11.478;2024-03-06T07:31:25;7.80;75.60
4677;DHT22;2352;48.180;11.478;2024-03-06T07:36:28;7.90;75.90
4677;DHT22;2352;48.180;11.478;2024-03-06T07:41:31;7.90;76.10
4677;DHT22;2352;48.180;11.478;2024-03-06T07:46:36;8.00;75.40
4677;DHT22;2352;48.180;11.478;2024-03-06T07:51:39;7.90;75.20
4677;DHT22;2352;48.180;11.478;2024-03-06T07:56:42;7.90;75.30
4677;DHT22;2352;48.180;11.478;2024-03-06T08:01:46;7.80;75.60
4677;DHT22;2352;48.180;11.478;2024-03-06T08:06:49;7.80;75.60
4677;DHT22;2352;48.180;11.478;2024-03-06T08:11:52;7.90;74.40
4677;DHT22;2352;48.180;11.478;2024-03-06T08:16:57;7.80;74.40
4677;DHT22;2352;48.180;11.478;2024-03-06T08:22:00;7.60;75.00
4677;DHT22;2352;48.180;11.478;2024-03-06T08:27:07;7.60;74.70
4677;DHT22;2352;48.180;11.478;2024-03-06T08:32:12;7.40;75.20
4677;DHT22;2352;48.180;11.478;2024-03-06T08:37:15;7.50;75.30
4677;DHT22;2352;48.180;11.478;2024-03-06T08:42:18;7.70;74.60
4677;DHT22;2352;48.180;11.478;2024-03-06T08:47:22;7.70;75.00
4677;DHT22;2352;48.180;11.478;2024-03-06T08:52:25;7.60;75.70
4677;DHT22;2352;48.180;11.478;2024-03-06T08:57:28;7.50;76.30
4677;DHT22;2352;48.180;11.478;2024-03-06T09:02:34;7.70;75.80
4677;DHT22;2352;48.180;11.478;2024-03-06T09:07:37;7.60;76.30
4677;DHT22;2352;48.180;11.478;2024-03-06T09:12:42;7.80;76.70
4677;DHT22;2352;48.180;11.478;2024-03-06T09:17:48;7.70;76.80
4677;DHT22;2352;48.180;11.478;2024-03-06T09:22:51;7.90;76.40
4677;DHT22;2352;48.180;11.478;2024-03-06T09:27:56;7.90;76.50
4677;DHT22;2352;48.180;11.478;2024-03-06T09:33:00;7.90;76.60
4677;DHT22;2352;48.180;11.478;2024-03-06T09:38:03;8.00;76.10
4677;DHT22;2352;48.180;11.478;2024-03-06T09:43:07;8.00;75.50
4677;DHT22;2352;48.180;11.478;2024-03-06T09:48:11;7.90;76.10
4677;DHT22;2352;48.180;11.478;2024-03-06T09:53:15;7.90;75.80
4677;DHT22;2352;48.180;11.478;2024-03-06T09:58:20;8.00;75.40
4677;DHT22;2352;48.180;11.478;2024-03-06T10:03:24;7.90;75.60
4677;DHT22;2352;48.180;11.478;2024-03-06T10:08:27;8.00;75.50
4677;DHT22;2352;48.180;11.478;2024-03-06T10:13:30;8.00;75.70
4677;DHT22;2352;48.180;11.478;2024-03-06T10:18:35;8.00;76.00
4677;DHT22;2352;48.180;11.478;2024-03-06T10:23:40;8.10;75.90
4677;DHT22;2352;48.180;11.478;2024-03-06T10:28:45;8.00;76.20
4677;DHT22;2352;48.180;11.478;2024-03-06T10:33:49;8.00;75.80
4677;DHT22;2352;48.180;11.478;2024-03-06T10:38:53;8.00;75.70
4677;DHT22;2352;48.180;11.478;2024-03-06T10:43:59;8.10;75.90
4677;DHT22;2352;48.180;11.478;2024-03-06T10:49:04;8.10;76.10
4677;DHT22;2352;48.180;11.478;2024-03-06T10:54:08;8.30;75.30
4677;DHT22;2352;48.180;11.478;2024-03-06T10:59:12;8.40;75.60
4677;DHT22;2352;48.180;11.478;2024-03-06T11:04:19;8.40;75.40
4677;DHT22;2352;48.180;11.478;2024-03-06T11:09:22;8.20;75.90
4677;DHT22;2352;48.180;11.478;2024-03-06T11:14:25;8.20;75.70
4677;DHT22;2352;48.180;11.478;2024-03-06T11:19:30;8.20;76.00
4677;DHT22;2352;48.180;11.478;2024-03-06T11:24:34;8.30;75.60
4677;DHT22;2352;48.180;11.478;2024-03-06T11:30:08;8.30;75.40
4677;DHT22;2352;48.180;11.478;2024-03-06T11:35:19;8.30;76.00
4677;DHT22;2352;48.180;11.478;2024-03-06T11:40:24;8.30;76.10
4677;DHT22;2352;48.180;11.478;2024-03-06T11:45:31;8.40;76.00
4677;DHT22;2352;48.180;11.478;2024-03-06T11:50:35;8.40;75.40
4677;DHT22;2352;48.180;11.478;2024-03-06T11:55:38;8.50;74.90
4677;DHT22;2352;48.180;11.478;2024-03-06T12:00:41;8.40;75.10
4677;DHT22;2352;48.180;11.478;2024-03-06T12:05:50;8.20;75.40
4677;DHT22;2352;48.180;11.478;2024-03-06T12:10:53;8.20;76.10
4677;DHT22;2352;48.180;11.478;2024-03-06T12:15:57;8.20;75.70
4677;DHT22;2352;48.180;11.478;2024-03-06T12:21:05;8.20;75.40
4677;DHT22;2352;48.180;11.478;2024-03-06T12:26:09;8.10;76.10
4677;DHT22;2352;48.180;11.478;2024-03-06T12:31:13;8.20;76.00
4677;DHT22;2352;48.180;11.478;2024-03-06T12:36:25;8.20;75.90
4677;DHT22;2352;48.180;11.478;2024-03-06T12:41:28;8.20;76.10
4677;DHT22;2352;48.180;11.478;2024-03-06T12:46:31;8.30;76.10
4677;DHT22;2352;48.180;11.478;2024-03-06T12:51:36;8.30;76.10
4677;DHT22;2352;48.180;11.478;2024-03-06T12:56:39;8.40;75.50
4677;DHT22;2352;48.180;11.478;2024-03-06T13:01:43;8.40;75.90
4677;DHT22;2352;48.180;11.478;2024-03-06T13:06:48;8.40;75.60
4677;DHT22;2352;48.180;11.478;2024-03-06T13:11:51;8.40;76.10
4677;DHT22;2352;48.180;11.478;2024-03-06T13:16:54;8.40;75.90
4677;DHT22;2352;48.180;11.478;2024-03-06T13:21:59;8.40;76.00
4677;DHT22;2352;48.180;11.478;2024-03-06T13:27:06;8.40;76.10
4677;DHT22;2352;48.180;11.478;2024-03-06T13:32:09;8.40;75.80
4677;DHT22;2352;48.180;11.478;2024-03-06T13:37:14;8.50;75.20
4677;DHT22;2352;48.180;11.478;2024-03-06T13:42:17;8.50;74.80
4677;DHT22;2352;48.180;11.478;2024-03-06T13:47:20;8.30;75.40
4677;DHT22;2352;48.180;11.478;2024-03-06T13:52:25;8.20;75.60
4677;DHT22;2352;48.180;11.478;2024-03-06T13:57:28;8.30;75.60
4677;DHT22;2352;48.180;11.478;2024-03-06T14:02:31;8.40;75.60
4677;DHT22;2352;48.180;11.478;2024-03-06T14:07:37;8.40;75.00
4677;DHT22;2352;48.180;11.478;2024-03-06T14:12:41;8.40;74.40
4677;DHT22;2352;48.180;11.478;2024-03-06T14:17:44;8.30;75.20
4677;DHT22;2352;48.180;11.478;2024-03-06T14:22:48;8.30;75.30
4677;DHT22;2352;48.180;11.478;2024-03-06T14:27:51;8.40;74.50
4677;DHT22;2352;48.180;11.478;2024-03-06T14:32:54;8.30;73.50
4677;DHT22;2352;48.180;11.478;2024-03-06T14:37:59;8.20;73.90
4677;DHT22;2352;48.180;11.478;2024-03-06T14:43:02;8.20;73.70
4677;DHT22;2352;48.180;11.478;2024-03-06T14:48:10;8.00;73.90
4677;DHT22;2352;48.180;11.478;2024-03-06T14:53:15;7.90;74.00
4677;DHT22;2352;48.180;11.478;2024-03-06T14:58:18;8.00;75.00
4677;DHT22;2352;48.180;11.478;2024-03-06T15:03:21;8.10;74.60
4677;DHT22;2352;48.180;11.478;2024-03-06T15:08:25;8.10;74.20
4677;DHT22;2352;48.180;11.478;2024-03-06T15:13:28;8.00;74.60
4677;DHT22;2352;48.180;11.478;2024-03-06T15:18:31;8.10;74.40
4677;DHT22;2352;48.180;11.478;2024-03-06T15:23:36;8.10;74.30
4677;DHT22;2352;48.180;11.478;2024-03-06T15:28:39;8.20;73.90
4677;DHT22;2352;48.180;11.478;2024-03-06T15:33:42;8.10;74.20
4677;DHT22;2352;48.180;11.478;2024-03-06T15:38:46;7.90;73.80
4677;DHT22;2352;48.180;11.478;2024-03-06T15:43:49;7.90;73.40
4677;DHT22;2352;48.180;11.478;2024-03-06T15:48:52;7.80;73.70
4677;DHT22;2352;48.180;11.478;2024-03-06T15:53:57;7.60;74.40
4677;DHT22;2352;48.180;11.478;2024-03-06T15:59:00;7.80;73.60
4677;DHT22;2352;48.180;11.478;2024-03-06T16:04:04;7.70;74.20
4677;DHT22;2352;48.180;11.478;2024-03-06T16:09:09;7.70;73.70
4677;DHT22;2352;48.180;11.478;2024-03-06T16:14:16;7.60;74.00
4677;DHT22;2352;48.180;11.478;2024-03-06T16:19:19;7.70;73.60
4677;DHT22;2352;48.180;11.478;2024-03-06T16:24:33;7.70;73.40
4677;DHT22;2352;48.180;11.478;2024-03-06T16:29:36;7.50;74.10
4677;DHT22;2352;48.180;11.478;2024-03-06T16:34:39;7.60;74.00
4677;DHT22;2352;48.180;11.478;2024-03-06T16:39:44;7.50;74.10
4677;DHT22;2352;48.180;11.478;2024-03-06T16:44:49;7.40;74.40
4677;DHT22;2352;48.180;11.478;2024-03-06T16:49:52;7.50;73.90
4677;DHT22;2352;48.180;11.478;2024-03-06T16:54:56;7.50;74.50
4677;DHT22;2352;48.180;11.478;2024-03-06T16:59:59;7.40;74.50
4677;DHT22;2352;48.180;11.478;2024-03-06T17:05:03;7.30;74.60
4677;DHT22;2352;48.180;11.478;2024-03-06T17:10:08;7.30;73.90
4677;DHT22;2352;48.180;11.478;2024-03-06T17:15:12;7.30;74.40
4677;DHT22;2352;48.180;11.478;2024-03-06T17:20:15;7.10;75.10
4677;DHT22;2352;48.180;11.478;2024-03-06T17:25:19;7.30;74.10
4677;DHT22;2352;48.180;11.478;2024-03-06T17:30:23;7.30;73.70
4677;DHT22;2352;48.180;11.478;2024-03-06T17:35:28;7.20;74.10
4677;DHT22;2352;48.180;11.478;2024-03-06T17:40:33;7.20;74.20
4677;DHT22;2352;48.180;11.478;2024-03-06T17:45:36;7.00;74.50
4677;DHT22;2352;48.180;11.478;2024-03-06T17:50:39;7.10;74.50
4677;DHT22;2352;48.180;11.478;2024-03-06T17:55:46;7.30;74.00
4677;DHT22;2352;48.180;11.478;2024-03-06T18:00:49;7.00;74.40
4677;DHT22;2352;48.180;11.478;2024-03-06T18:05:52;6.90;75.30
4677;DHT22;2352;48.180;11.478;2024-03-06T18:10:56;6.90;75.40
4677;DHT22;2352;48.180;11.478;2024-03-06T18:15:59;6.90;75.50
4677;DHT22;2352;48.180;11.478;2024-03-06T18:21:03;7.00;75.10
4677;DHT22;2352;48.180;11.478;2024-03-06T18:26:09;6.90;75.40
4677;DHT22;2352;48.180;11.478;2024-03-06T18:31:12;7.00;74.90
4677;DHT22;2352;48.180;11.478;2024-03-06T18:36:19;6.90;74.90
4677;DHT22;2352;48.180;11.478;2024-03-06T18:41:23;7.10;75.00
4677;DHT22;2352;48.180;11.478;2024-03-06T18:46:26;7.00;75.00
4677;DHT22;2352;48.180;11.478;2024-03-06T18:51:30;7.00;74.90
4677;DHT22;2352;48.180;11.478;2024-03-06T18:56:34;6.90;75.10
4677;DHT22;2352;48.180;11.478;2024-03-06T19:01:38;6.80;75.70
4677;DHT22;2352;48.180;11.478;2024-03-06T19:06:41;6.90;75.60
4677;DHT22;2352;48.180;11.478;2024-03-06T19:11:46;6.80;75.70
4677;DHT22;2352;48.180;11.478;2024-03-06T19:16:49;7.00;75.30
4677;DHT22;2352;48.180;11.478;2024-03-06T19:21:52;6.90;75.80
4677;DHT22;2352;48.180;11.478;2024-03-06T19:26:57;6.90;76.00
4677;DHT22;2352;48.180;11.478;2024-03-06T19:32:00;6.90;76.00
4677;DHT22;2352;48.180;11.478;2024-03-06T19:37:04;6.90;76.20
4677;DHT22;2352;48.180;11.478;2024-03-06T19:42:08;6.80;76.30
4677;DHT22;2352;48.180;11.478;2024-03-06T19:47:11;6.90;75.70
4677;DHT22;2352;48.180;11.478;2024-03-06T19:52:14;7.00;75.40
4677;DHT22;2352;48.180;11.478;2024-03-06T19:57:19;6.90;75.60
4677;DHT22;2352;48.180;11.478;2024-03-06T20:02:22;6.90;75.40
4677;DHT22;2352;48.180;11.478;2024-03-06T20:07:25;6.80;75.50
4677;DHT22;2352;48.180;11.478;2024-03-06T20:12:29;6.50;76.40
4677;DHT22;2352;48.180;11.478;2024-03-06T20:17:32;6.60;76.20
4677;DHT22;2352;48.180;11.478;2024-03-06T20:22:35;6.60;76.10
4677;DHT22;2352;48.180;11.478;2024-03-06T20:27:39;6.50;76.70
4677;DHT22;2352;48.180;11.478;2024-03-06T20:32:42;6.70;75.90
4677;DHT22;2352;48.180;11.478;2024-03-06T20:37:45;6.60;75.70
4677;DHT22;2352;48.180;11.478;2024-03-06T20:42:50;6.30;76.20
4677;DHT22;2352;48.180;11.478;2024-03-06T20:47:53;6.40;76.20
4677;DHT22;2352;48.180;11.478;2024-03-06T20:53:02;6.30;76.30
4677;DHT22;2352;48.180;11.478;2024-03-06T20:58:06;6.40;76.10
4677;DHT22;2352;48.180;11.478;2024-03-06T21:03:10;6.40;76.10
4677;DHT22;2352;48.180;11.478;2024-03-06T21:08:14;6.30;75.60
4677;DHT22;2352;48.180;11.478;2024-03-06T21:13:18;6.30;75.90
4677;DHT22;2352;48.180;11.478;2024-03-06T21:18:21;6.40;75.80
4677;DHT22;2352;48.180;11.478;2024-03-06T21:23:24;6.30;75.70
4677;DHT22;2352;48.180;11.478;2024-03-06T21:28:29;6.20;76.10
4677;DHT22;2352;48.180;11.478;2024-03-06T21:33:32;6.30;76.30
4677;DHT22;2352;48.180;11.478;2024-03-06T21:38:35;6.20;75.50
4677;DHT22;2352;48.180;11.478;2024-03-06T21:43:40;6.20;75.80
4677;DHT22;2352;48.180;11.478;2024-03-06T21:48:43;6.30;75.60
4677;DHT22;2352;48.180;11.478;2024-03-06T21:53:46;6.10;75.60
4677;DHT22;2352;48.180;11.478;2024-03-06T21:58:50;6.20;75.50
4677;DHT22;2352;48.180;11.478;2024-03-06T22:03:53;6.20;75.20
4677;DHT22;2352;48.180;11.478;2024-03-06T22:08:57;6.30;75.40
4677;DHT22;2352;48.180;11.478;2024-03-06T22:14:01;6.20;75.50
4677;DHT22;2352;48.180;11.478;2024-03-06T22:19:04;6.20;75.70
4677;DHT22;2352;48.180;11.478;2024-03-06T22:24:08;6.00;75.50
4677;DHT22;2352;48.180;11.478;2024-03-06T22:29:12;6.00;76.00
4677;DHT22;2352;48.180;11.478;2024-03-06T22:34:16;6.20;75.10
4677;DHT22;2352;48.180;11.478;2024-03-06T22:39:19;6.10;75.40
4677;DHT22;2352;48.180;11.478;2024-03-06T22:44:24;6.00;75.90
4677;DHT22;2352;48.180;11.478;2024-03-06T22:49:28;5.90;76.10
4677;DHT22;2352;48.180;11.478;2024-03-06T22:54:31;5.90;76.40
4677;DHT22;2352;48.180;11.478;2024-03-06T22:59:36;5.80;76.30
4677;DHT22;2352;48.180;11.478;2024-03-06T23:04:39;5.70;77.00
4677;DHT22;2352;48.180;11.478;2024-03-06T23:09:43;5.90;76.30
4677;DHT22;2352;48.180;11.478;2024-03-06T23:14:48;5.90;75.70
4677;DHT22;2352;48.180;11.478;2024-03-06T23:19:51;6.00;75.40
4677;DHT22;2352;48.180;11.478;2024-03-06T23:24:54;5.90;75.40
4677;DHT22;2352;48.180;11.478;2024-03-06T23:29:58;5.90;75.90
4677;DHT22;2352;48.180;11.478;2024-03-06T23:35:01;5.90;75.80
4677;DHT22;2352;48.180;11.478;2024-03-06T23:40:07;6.10;75.40
4677;DHT22;2352;48.180;11.478;2024-03-06T23:45:14;5.90;76.00
4677;DHT22;2352;48.180;11.478;2024-03-06T23:50:17;6.10;75.50
4677;DHT22;2352;48.180;11.478;2024-03-06T23:55:22;5.90;75.70
